createdAt,value
2023-04-24T00:00:37.197Z,1.67
2023-04-24T00:03:04.148Z,1.38
2023-04-24T00:05:30.772Z,1.20
2023-04-24T00:07:57.261Z,3.20
2023-04-24T00:10:23.805Z,2.88
2023-04-24T00:12:50.272Z,2.45
2023-04-24T00:15:16.743Z,3.45
2023-04-24T00:17:43.336Z,1.55
2023-04-24T00:20:11.581Z,5.20
2023-04-24T00:22:38.098Z,1.17
2023-04-24T00:25:04.794Z,0.98
2023-04-24T00:27:31.327Z,3.33
2023-04-24T00:29:57.844Z,3.53
2023-04-24T00:32:24.332Z,1.95
2023-04-24T00:34:50.926Z,1.10
2023-04-24T00:37:17.421Z,2.40
2023-04-24T00:39:45.233Z,1.20
2023-04-24T00:42:12.079Z,2.03
2023-04-24T00:44:38.647Z,1.27
2023-04-24T00:47:05.291Z,2.75
2023-04-24T00:49:31.853Z,3.10
2023-04-24T00:52:00.344Z,1.20
2023-04-24T00:54:26.916Z,3.03
2023-04-24T00:56:53.599Z,3.08
2023-04-24T00:59:20.248Z,2.08
2023-04-24T01:01:46.966Z,1.98
2023-04-24T01:04:13.805Z,1.27
2023-04-24T01:06:41.099Z,3.33
2023-04-24T01:09:11.461Z,6.30
2023-04-24T01:11:38.257Z,12.13
2023-04-24T01:14:05.362Z,7.78
2023-04-24T01:16:31.945Z,12.95
2023-04-24T01:18:58.410Z,4.25
2023-04-24T01:21:28.641Z,6.15
2023-04-24T01:23:56.309Z,5.97
2023-04-24T01:26:23.347Z,19.45
2023-04-24T01:28:49.805Z,17.73
2023-04-24T01:31:16.772Z,14.10
2023-04-24T01:33:43.924Z,2.33
2023-04-24T01:36:12.067Z,1.90
2023-04-24T01:38:38.782Z,1.50
2023-04-24T01:41:05.503Z,2.00
2023-04-24T01:43:32.709Z,2.00
2023-04-24T01:45:59.269Z,1.35
2023-04-24T01:48:25.787Z,2.92
2023-04-24T01:50:52.365Z,2.95
2023-04-24T01:53:18.850Z,1.35
2023-04-24T01:55:45.344Z,2.35
2023-04-24T01:58:13.330Z,2.60
2023-04-24T02:00:39.822Z,2.40
2023-04-24T02:03:07.038Z,1.95
2023-04-24T02:05:33.668Z,2.55
2023-04-24T02:08:00.159Z,2.30
2023-04-24T02:10:26.659Z,1.30
2023-04-24T02:12:53.123Z,1.20
2023-04-24T02:15:19.656Z,1.85
2023-04-24T02:17:46.171Z,1.95
2023-04-24T02:20:12.699Z,2.55
2023-04-24T02:22:39.233Z,6.13
2023-04-24T02:25:06.265Z,3.45
2023-04-24T02:27:32.703Z,1.40
2023-04-24T02:29:59.187Z,3.08
2023-04-24T02:32:25.728Z,1.48
2023-04-24T02:34:52.246Z,2.33
2023-04-24T02:37:18.771Z,2.00
2023-04-24T02:39:45.365Z,2.88
2023-04-24T02:42:11.899Z,2.22
2023-04-24T02:44:38.364Z,2.17
2023-04-24T02:47:05.080Z,1.73
2023-04-24T02:49:31.631Z,1.35
2023-04-24T02:51:58.094Z,1.95
2023-04-24T02:54:24.556Z,3.35
2023-04-24T02:56:51.346Z,1.83
2023-04-24T02:59:17.883Z,1.23
2023-04-24T03:01:44.482Z,1.50
2023-04-24T03:04:11.496Z,3.25
2023-04-24T03:06:38.271Z,7.28
2023-04-24T03:09:04.786Z,13.10
2023-04-24T03:11:32.177Z,24.02
2023-04-24T03:13:58.633Z,6.03
2023-04-24T03:16:25.280Z,1.95
2023-04-24T03:18:55.258Z,15.98
2023-04-24T03:21:24.020Z,9.63
2023-04-24T03:23:50.705Z,5.85
2023-04-24T03:26:17.195Z,7.90
2023-04-24T03:28:57.361Z,3.47
2023-04-24T03:31:24.478Z,2.30
2023-04-24T03:33:52.056Z,3.20
2023-04-24T03:36:20.088Z,5.00
2023-04-24T03:38:46.642Z,2.25
2023-04-24T03:41:31.751Z,2.60
2023-04-24T03:44:09.980Z,3.15
2023-04-24T03:46:37.035Z,2.25
2023-04-24T03:49:03.627Z,2.67
2023-04-24T03:51:37.751Z,2.20
2023-04-24T03:54:12.359Z,1.70
2023-04-24T03:56:40.399Z,2.40
2023-04-24T03:59:07.086Z,4.57
2023-04-24T04:01:38.092Z,2.88
2023-04-24T04:04:13.511Z,2.70
2023-04-24T04:06:41.936Z,2.28
2023-04-24T04:09:09.587Z,1.65
2023-04-24T04:11:36.503Z,1.88
2023-04-24T04:14:03.366Z,2.20
2023-04-24T04:16:30.996Z,4.05
2023-04-24T04:19:03.854Z,2.67
2023-04-24T04:21:32.195Z,3.13
2023-04-24T04:24:10.658Z,2.70
2023-04-24T04:26:41.610Z,4.43
2023-04-24T04:29:11.153Z,2.42
2023-04-24T04:31:42.322Z,1.90
2023-04-24T04:34:13.579Z,2.25
2023-04-24T04:36:42.199Z,2.22
2023-04-24T04:39:22.165Z,2.05
2023-04-24T04:41:55.426Z,2.00
2023-04-24T04:44:27.232Z,3.75
2023-04-24T04:46:57.198Z,2.00
2023-04-24T04:49:29.744Z,4.68
2023-04-24T04:51:56.446Z,1.65
2023-04-24T04:54:25.887Z,3.30
2023-04-24T04:56:52.612Z,1.90
2023-04-24T04:59:19.492Z,2.75
2023-04-24T05:01:48.097Z,3.75
2023-04-24T05:04:16.334Z,2.42
2023-04-24T05:06:44.068Z,2.03
2023-04-24T05:09:11.049Z,2.10
2023-04-24T05:11:49.330Z,2.80
2023-04-24T05:14:18.798Z,2.00
2023-04-24T05:16:45.710Z,2.08
2023-04-24T05:19:14.906Z,4.53
2023-04-24T05:21:42.358Z,1.85
2023-04-24T05:24:10.345Z,2.28
2023-04-24T05:26:45.855Z,2.95
2023-04-24T05:29:14.618Z,2.85
2023-04-24T05:31:42.479Z,1.88
2023-04-24T05:34:09.293Z,1.77
2023-04-24T05:36:39.773Z,1.65
2023-04-24T05:39:08.079Z,2.28
2023-04-24T05:41:35.393Z,2.40
2023-04-24T05:44:01.882Z,2.35
2023-04-24T05:46:28.512Z,2.05
2023-04-24T05:48:56.369Z,2.47
2023-04-24T05:51:22.938Z,1.98
2023-04-24T05:53:49.580Z,3.38
2023-04-24T05:56:16.721Z,1.58
2023-04-24T05:58:43.175Z,1.52
2023-04-24T06:01:10.568Z,1.90
2023-04-24T06:03:39.417Z,2.28
2023-04-24T06:06:07.245Z,1.50
2023-04-24T06:08:36.252Z,1.92
2023-04-24T06:11:04.479Z,1.85
2023-04-24T06:13:32.207Z,2.78
2023-04-24T06:16:30.996Z,1.50
2023-04-24T06:19:03.053Z,1.70
2023-04-24T06:21:29.976Z,3.35
2023-04-24T06:23:57.110Z,1.73
2023-04-24T06:26:25.915Z,2.72
2023-04-24T06:28:52.434Z,2.30
2023-04-24T06:31:19.643Z,3.72
2023-04-24T06:33:46.518Z,1.98
2023-04-24T06:36:13.476Z,1.70
2023-04-24T06:38:39.992Z,1.30
2023-04-24T06:41:06.528Z,1.85
2023-04-24T06:43:33.149Z,2.97
2023-04-24T06:46:02.000Z,1.30
2023-04-24T06:48:28.516Z,1.30
2023-04-24T06:50:54.981Z,3.05
2023-04-24T06:53:21.483Z,4.68
2023-04-24T06:55:47.968Z,2.35
2023-04-24T06:58:15.346Z,2.40
2023-04-24T07:00:41.991Z,1.20
2023-04-24T07:03:08.676Z,1.85
2023-04-24T07:05:36.246Z,1.67
2023-04-24T07:08:03.140Z,2.20
2023-04-24T07:10:29.709Z,2.80
2023-04-24T07:12:57.525Z,5.32
2023-04-24T07:15:24.690Z,1.42
2023-04-24T07:17:51.218Z,1.95
2023-04-24T07:20:17.731Z,3.53
2023-04-24T07:22:44.266Z,1.77
2023-04-24T07:25:10.949Z,2.85
2023-04-24T07:27:37.678Z,1.75
2023-04-24T07:30:05.277Z,1.20
2023-04-24T07:32:31.810Z,2.58
2023-04-24T07:34:58.278Z,2.83
2023-04-24T07:37:25.156Z,1.40
2023-04-24T07:39:51.683Z,2.55
2023-04-24T07:42:18.137Z,2.28
2023-04-24T07:44:44.641Z,1.45
2023-04-24T07:47:11.710Z,3.15
2023-04-24T07:49:38.290Z,2.22
2023-04-24T07:52:04.759Z,0.80
2023-04-24T07:54:31.241Z,1.10
2023-04-24T07:56:57.803Z,2.63
2023-04-24T07:59:24.304Z,0.88
2023-04-24T08:01:50.860Z,2.47
2023-04-24T08:04:18.944Z,0.80
2023-04-24T08:06:45.846Z,1.52
2023-04-24T08:09:12.349Z,3.00
2023-04-24T08:11:38.884Z,1.23
2023-04-24T08:14:05.343Z,1.02
2023-04-24T08:16:33.826Z,4.53
2023-04-24T08:19:00.407Z,0.98
2023-04-24T08:21:28.091Z,1.58
2023-04-24T08:23:54.682Z,1.98
2023-04-24T08:26:21.172Z,1.50
2023-04-24T08:28:47.640Z,1.95
2023-04-24T08:31:14.170Z,1.88
2023-04-24T08:33:41.942Z,0.90
2023-04-24T08:36:09.036Z,1.20
2023-04-24T08:38:35.506Z,1.92
2023-04-24T08:41:02.628Z,2.58
2023-04-24T08:43:29.413Z,1.23
2023-04-24T08:45:57.554Z,3.47
2023-04-24T08:48:31.276Z,1.38
2023-04-24T08:50:58.922Z,4.43
2023-04-24T08:53:26.352Z,3.17
2023-04-24T08:55:55.320Z,2.03
2023-04-24T08:58:21.830Z,4.85
2023-04-24T09:00:49.000Z,2.53
2023-04-24T09:03:17.447Z,1.80
2023-04-24T09:05:46.805Z,1.17
2023-04-24T09:08:14.981Z,2.10
2023-04-24T09:10:41.633Z,2.90
2023-04-24T09:13:10.142Z,4.07
2023-04-24T09:15:37.453Z,2.80
2023-04-24T09:18:04.109Z,0.82
2023-04-24T09:20:30.630Z,2.60
2023-04-24T09:22:58.459Z,2.03
2023-04-24T09:25:36.815Z,1.45
2023-04-24T09:28:04.725Z,2.40
2023-04-24T09:30:31.231Z,1.13
2023-04-24T09:33:15.018Z,1.25
2023-04-24T09:35:51.910Z,3.05
2023-04-24T09:38:18.492Z,3.15
2023-04-24T09:40:45.250Z,3.38
2023-04-24T09:43:12.421Z,2.03
2023-04-24T09:45:41.865Z,1.58
2023-04-24T09:48:11.914Z,5.95
2023-04-24T09:50:38.672Z,4.00
2023-04-24T09:53:06.484Z,2.92
2023-04-24T09:55:33.628Z,1.90
2023-04-24T09:58:06.137Z,2.38
2023-04-24T10:00:33.735Z,2.22
2023-04-24T10:03:02.509Z,2.50
2023-04-24T10:05:30.865Z,3.53
2023-04-24T10:08:02.005Z,1.50
2023-04-24T10:10:29.077Z,2.17
2023-04-24T10:12:56.139Z,2.00
2023-04-24T10:15:22.957Z,1.30
2023-04-24T10:17:54.147Z,1.30
2023-04-24T10:20:25.809Z,1.13
2023-04-24T10:22:54.075Z,1.30
2023-04-24T10:25:26.071Z,3.25
2023-04-24T10:27:53.408Z,2.10
2023-04-24T10:30:21.073Z,2.28
2023-04-24T10:32:47.568Z,3.10
2023-04-24T10:35:15.762Z,1.42
2023-04-24T10:37:51.497Z,2.08
2023-04-24T10:40:26.997Z,1.70
2023-04-24T10:42:58.626Z,1.33
2023-04-24T10:45:26.063Z,2.22
2023-04-24T10:47:54.117Z,1.48
2023-04-24T10:50:20.870Z,1.33
2023-04-24T10:52:48.419Z,1.85
2023-04-24T10:55:17.730Z,2.80
2023-04-24T10:58:04.586Z,1.48
2023-04-24T11:00:31.349Z,3.72
2023-04-24T11:02:58.875Z,1.90
2023-04-24T11:05:50.742Z,1.70
2023-04-24T11:08:23.809Z,1.60
2023-04-24T11:11:04.783Z,1.90
2023-04-24T11:13:55.871Z,1.92
2023-04-24T11:16:34.671Z,1.50
2023-04-24T11:19:17.560Z,1.60
2023-04-24T11:21:56.393Z,2.45
2023-04-24T11:24:26.428Z,2.20
2023-04-24T11:27:20.853Z,1.67
2023-04-24T11:32:20.468Z,2.60
2023-04-24T11:34:51.660Z,2.47
2023-04-24T11:37:18.298Z,1.88
2023-04-24T11:39:44.854Z,3.22
2023-04-24T11:42:11.442Z,1.38
2023-04-24T11:44:38.586Z,1.58
2023-04-24T11:47:06.843Z,1.65
2023-04-24T11:49:33.653Z,2.08
2023-04-24T11:52:03.637Z,3.97
2023-04-24T11:54:30.505Z,1.40
2023-04-24T11:56:57.792Z,1.23
2023-04-24T11:59:24.435Z,1.58
2023-04-24T12:01:51.289Z,1.50
2023-04-24T12:04:19.225Z,2.13
2023-04-24T12:07:04.602Z,1.83
2023-04-24T12:09:42.579Z,1.33
2023-04-24T12:12:11.271Z,1.60
2023-04-24T12:14:49.984Z,1.17
2023-04-24T12:17:17.655Z,3.40
2023-04-24T12:19:48.372Z,4.93
2023-04-24T12:22:15.096Z,2.33
2023-04-24T12:25:04.391Z,4.15
2023-04-24T12:27:32.947Z,1.33
2023-04-24T12:30:01.096Z,5.38
2023-04-24T12:32:28.376Z,3.05
2023-04-24T12:34:55.889Z,2.58
2023-04-24T12:37:24.996Z,1.60
2023-04-24T12:40:08.822Z,2.72
2023-04-24T12:45:07.239Z,1.27
2023-04-24T12:47:34.190Z,1.73
2023-04-24T12:50:01.334Z,1.55
2023-04-24T12:52:29.352Z,2.20
2023-04-24T12:54:57.744Z,2.95
2023-04-24T12:57:25.084Z,1.40
2023-04-24T12:59:53.074Z,1.30
2023-04-24T13:02:19.792Z,2.40
2023-04-24T13:04:47.876Z,1.20
2023-04-24T13:07:15.765Z,2.67
2023-04-24T13:09:42.854Z,1.40
2023-04-24T13:12:10.086Z,1.30
2023-04-24T13:14:36.584Z,2.88
2023-04-24T13:17:03.847Z,6.93
2023-04-24T13:19:31.244Z,1.73
2023-04-24T13:21:58.479Z,1.35
2023-04-24T13:24:27.575Z,2.30
2023-04-24T13:26:54.292Z,1.00
2023-04-24T13:29:20.996Z,1.15
2023-04-24T13:31:48.189Z,1.80
2023-04-24T13:34:14.821Z,3.38
2023-04-24T13:36:41.334Z,1.48
2023-04-24T13:39:07.855Z,1.50
2023-04-24T13:41:35.048Z,1.00
2023-04-24T13:44:01.818Z,1.00
2023-04-24T13:46:28.479Z,0.90
2023-04-24T13:48:55.137Z,0.88
2023-04-24T13:51:21.678Z,1.88
2023-04-24T13:53:48.127Z,0.55
2023-04-24T13:56:15.118Z,0.73
2023-04-24T13:58:41.655Z,0.63
2023-04-24T14:01:08.157Z,1.05
2023-04-24T14:03:35.022Z,2.40
2023-04-24T14:06:01.595Z,0.70
2023-04-24T14:08:28.069Z,0.80
2023-04-24T14:10:54.541Z,0.50
2023-04-24T14:13:21.354Z,2.03
2023-04-24T14:15:47.965Z,0.95
2023-04-24T14:18:14.545Z,1.58
2023-04-24T14:20:41.133Z,0.30
2023-04-24T14:23:07.588Z,0.93
2023-04-24T14:25:34.061Z,0.50
2023-04-24T14:28:00.750Z,0.40
2023-04-24T14:30:27.195Z,0.52
2023-04-24T14:32:53.695Z,1.70
2023-04-24T14:35:20.355Z,0.30
2023-04-24T14:37:46.849Z,0.57
2023-04-24T14:40:32.061Z,0.47
2023-04-24T14:42:59.792Z,0.30
2023-04-24T14:45:27.449Z,0.40
2023-04-24T14:47:54.483Z,0.40
2023-04-24T14:50:23.036Z,1.73
2023-04-24T14:52:51.061Z,0.45
2023-04-24T14:55:17.684Z,0.28
2023-04-24T14:57:44.107Z,0.85
2023-04-24T15:00:11.071Z,0.57
2023-04-24T15:02:40.920Z,0.28
2023-04-24T15:05:08.502Z,0.30
2023-04-24T15:07:36.692Z,0.85
2023-04-24T15:10:04.203Z,0.25
2023-04-24T15:12:30.766Z,0.30
2023-04-24T15:14:58.660Z,0.77
2023-04-24T15:17:25.174Z,0.30
2023-04-24T15:19:51.705Z,0.30
2023-04-24T15:22:18.212Z,1.05
2023-04-24T15:24:44.674Z,1.30
2023-04-24T15:27:11.955Z,3.67
2023-04-24T15:29:38.654Z,0.65
2023-04-24T15:32:05.395Z,0.40
2023-04-24T15:34:33.081Z,0.40
2023-04-24T15:37:00.377Z,0.40
2023-04-24T15:39:27.072Z,0.50
2023-04-24T15:41:54.296Z,0.50
2023-04-24T15:44:22.120Z,0.40
2023-04-24T15:46:48.659Z,2.92
2023-04-24T15:49:15.233Z,0.68
2023-04-24T15:51:41.715Z,2.15
2023-04-24T15:54:08.208Z,0.85
2023-04-24T15:56:35.447Z,0.50
2023-04-24T15:59:03.016Z,0.55
2023-04-24T16:01:31.286Z,0.50
2023-04-24T16:03:58.092Z,1.40
2023-04-24T16:06:24.725Z,1.63
2023-04-24T16:08:51.207Z,1.85
2023-04-24T16:11:17.696Z,0.70
2023-04-24T16:13:44.194Z,0.57
2023-04-24T16:16:11.145Z,1.17
2023-04-24T16:18:37.650Z,1.45
2023-04-24T16:21:04.515Z,1.42
2023-04-24T16:23:31.123Z,0.50
2023-04-24T16:25:57.632Z,0.88
2023-04-24T16:28:24.102Z,0.55
2023-04-24T16:30:50.542Z,0.70
2023-04-24T16:33:17.007Z,0.50
2023-04-24T16:35:44.222Z,1.60
2023-04-24T16:38:11.334Z,2.35
2023-04-24T16:40:37.899Z,2.13
2023-04-24T16:43:04.454Z,1.90
2023-04-24T16:45:31.017Z,1.42
2023-04-24T16:47:57.537Z,0.90
2023-04-24T16:50:24.079Z,0.98
2023-04-24T16:52:50.533Z,2.55
2023-04-24T16:55:17.075Z,0.90
2023-04-24T16:57:43.579Z,0.70
2023-04-24T17:00:11.136Z,0.93
2023-04-24T17:02:37.742Z,0.95
2023-04-24T17:05:04.511Z,0.70
2023-04-24T17:07:31.841Z,0.60
2023-04-24T17:09:58.348Z,0.50
2023-04-24T17:12:24.829Z,0.40
2023-04-24T17:14:51.315Z,0.70
2023-04-24T17:17:20.266Z,0.70
2023-04-24T17:19:46.773Z,0.85
2023-04-24T17:22:13.442Z,0.70
2023-04-24T17:24:40.137Z,1.15
2023-04-24T17:27:14.667Z,0.88
2023-04-24T17:29:42.261Z,0.90
2023-04-24T17:32:09.026Z,1.13
2023-04-24T17:34:35.578Z,1.02
2023-04-24T17:37:02.321Z,1.30
2023-04-24T17:39:28.847Z,1.13
2023-04-24T17:41:55.344Z,2.55
2023-04-24T17:44:21.875Z,1.25
2023-04-24T17:46:48.388Z,1.23
2023-04-24T17:49:14.871Z,1.70
2023-04-24T17:51:41.455Z,2.28
2023-04-24T17:54:07.932Z,2.35
2023-04-24T17:56:34.513Z,4.53
2023-04-24T17:59:01.027Z,2.25
2023-04-24T18:01:28.892Z,3.28
2023-04-24T18:03:55.714Z,2.60
2023-04-24T18:06:22.492Z,3.85
2023-04-24T18:08:49.316Z,4.35
2023-04-24T18:11:16.033Z,4.22
2023-04-24T18:13:42.821Z,10.38
2023-04-24T18:16:09.376Z,5.53
2023-04-24T18:18:36.548Z,4.55
2023-04-24T18:21:03.172Z,5.78
2023-04-24T18:23:29.847Z,5.80
2023-04-24T18:25:56.340Z,4.22
2023-04-24T18:28:22.838Z,7.82
2023-04-24T18:30:49.401Z,3.88
2023-04-24T18:33:15.921Z,3.67
2023-04-24T18:35:42.376Z,4.30
2023-04-24T18:38:09.399Z,3.65
2023-04-24T18:40:36.320Z,4.30
2023-04-24T18:43:02.772Z,5.55
2023-04-24T18:45:29.351Z,3.78
2023-04-24T18:47:56.213Z,4.82
2023-04-24T18:50:22.789Z,4.95
2023-04-24T18:52:49.501Z,4.05
2023-04-24T18:55:16.046Z,4.97
2023-04-24T18:57:42.536Z,5.82
2023-04-24T19:00:09.409Z,4.18
2023-04-24T19:02:36.058Z,5.18
2023-04-24T19:05:03.204Z,5.05
2023-04-24T19:07:29.681Z,3.92
2023-04-24T19:09:56.305Z,4.28
2023-04-24T19:12:23.156Z,6.63
2023-04-24T19:14:49.692Z,4.00
2023-04-24T19:17:22.504Z,5.65
2023-04-24T19:19:49.149Z,6.70
2023-04-24T19:22:15.758Z,5.78
2023-04-24T19:24:42.242Z,5.45
2023-04-24T19:27:08.809Z,5.75
2023-04-24T19:29:35.313Z,6.70
2023-04-24T19:32:01.839Z,6.95
2023-04-24T19:34:30.700Z,5.60
2023-04-24T19:36:57.239Z,6.45
2023-04-24T19:39:23.683Z,7.25
2023-04-24T19:41:50.273Z,4.97
2023-04-24T19:44:17.354Z,5.72
2023-04-24T19:46:43.980Z,6.15
2023-04-24T19:49:10.808Z,5.25
2023-04-24T19:51:37.652Z,11.02
2023-04-24T19:54:06.229Z,5.50
2023-04-24T19:56:33.085Z,7.53
2023-04-24T19:58:59.658Z,8.43
2023-04-24T20:01:26.212Z,7.30
2023-04-24T20:03:52.986Z,5.05
2023-04-24T20:06:19.561Z,6.22
2023-04-24T20:08:46.097Z,6.80
2023-04-24T20:11:14.107Z,7.03
2023-04-24T20:13:41.234Z,5.95
2023-04-24T20:16:09.668Z,6.03
2023-04-24T20:18:37.705Z,5.82
2023-04-24T20:21:04.187Z,8.23
2023-04-24T20:23:30.752Z,5.30
2023-04-24T20:26:01.006Z,4.00
2023-04-24T20:28:28.983Z,6.05
2023-04-24T20:30:55.608Z,5.60
2023-04-24T20:33:22.328Z,6.20
2023-04-24T20:35:49.620Z,7.70
2023-04-24T20:38:18.364Z,6.22
2023-04-24T20:40:57.340Z,5.65
2023-04-24T20:43:28.458Z,5.72
2023-04-24T20:45:57.939Z,7.40
2023-04-24T20:48:24.983Z,8.82
2023-04-24T20:50:53.904Z,4.70
2023-04-24T20:53:20.975Z,5.65
2023-04-24T20:55:47.961Z,6.38
2023-04-24T20:58:15.085Z,4.47
2023-04-24T21:00:41.723Z,5.22
2023-04-24T21:03:08.333Z,5.30
2023-04-24T21:05:35.088Z,4.72
2023-04-24T21:08:01.789Z,4.18
2023-04-24T21:10:28.275Z,7.50
2023-04-24T21:12:55.002Z,5.13
2023-04-24T21:15:21.606Z,5.53
2023-04-24T21:17:48.904Z,4.85
2023-04-24T21:20:16.001Z,5.82
2023-04-24T21:22:42.605Z,6.18
2023-04-24T21:25:09.800Z,4.78
2023-04-24T21:27:37.270Z,3.92
2023-04-24T21:30:05.912Z,4.35
2023-04-24T21:32:32.786Z,4.63
2023-04-24T21:34:59.762Z,3.92
2023-04-24T21:37:26.927Z,4.55
2023-04-24T21:39:53.416Z,3.95
2023-04-24T21:42:19.950Z,12.35
2023-04-24T21:44:46.469Z,6.43
2023-04-24T21:47:13.031Z,7.32
2023-04-24T21:49:39.546Z,5.60
2023-04-24T21:52:06.034Z,7.72
2023-04-24T21:54:32.485Z,8.02
2023-04-24T21:56:59.243Z,13.52
2023-04-24T21:59:25.678Z,38.50
2023-04-24T22:01:52.209Z,77.53
2023-04-24T22:04:18.895Z,64.20
2023-04-24T22:06:45.752Z,13.18
2023-04-24T22:09:12.478Z,11.15
2023-04-24T22:11:38.989Z,14.02
2023-04-24T22:14:07.101Z,12.82
2023-04-24T22:16:34.389Z,11.45
2023-04-24T22:19:01.123Z,12.43
2023-04-24T22:21:27.759Z,9.02
2023-04-24T22:23:54.297Z,9.15
2023-04-24T22:26:20.880Z,9.70
2023-04-24T22:28:48.338Z,9.63
2023-04-24T22:31:15.041Z,8.20
2023-04-24T22:33:42.250Z,8.48
2023-04-24T22:36:08.845Z,8.23
2023-04-24T22:38:35.309Z,8.02
2023-04-24T22:41:02.308Z,7.38
2023-04-24T22:43:28.775Z,9.98
2023-04-24T22:45:55.244Z,6.95
2023-04-24T22:48:22.921Z,9.65
2023-04-24T22:50:49.418Z,7.53
2023-04-24T22:53:15.932Z,6.70
2023-04-24T22:55:42.403Z,7.57
2023-04-24T22:58:08.935Z,9.88
2023-04-24T23:00:35.564Z,10.45
2023-04-24T23:03:02.509Z,8.13
2023-04-24T23:05:30.074Z,8.75
2023-04-24T23:07:56.747Z,10.43
2023-04-24T23:10:23.473Z,10.98
2023-04-24T23:12:50.222Z,9.98
2023-04-24T23:15:16.705Z,9.23
2023-04-24T23:17:43.599Z,10.63
2023-04-24T23:20:14.052Z,10.65
2023-04-24T23:22:41.041Z,12.30
2023-04-24T23:25:11.014Z,8.73
2023-04-24T23:27:37.611Z,10.05
2023-04-24T23:30:06.557Z,6.63
2023-04-24T23:32:33.036Z,8.88
2023-04-24T23:34:59.622Z,9.35
2023-04-24T23:37:26.117Z,9.70
2023-04-24T23:39:52.791Z,7.93
2023-04-24T23:42:19.325Z,7.63
2023-04-24T23:44:45.841Z,8.15
2023-04-24T23:47:12.299Z,7.57
2023-04-24T23:49:39.137Z,7.13
2023-04-24T23:52:05.728Z,7.40
2023-04-24T23:54:32.246Z,8.18
2023-04-24T23:56:58.678Z,9.00
2023-04-24T23:59:25.324Z,9.40
